Terminal Aerodrome Forecast
Issued by NWS

Home | Current Version | Previous Version | Text Only | Print | Product List | Glossary Off
Versions: 1 2 3 4 5 6 7 8 9 10 11 12 13 14 15 16 17 18 19 20 21 22 23 24 25 26 27 28

635
FTUS45 KGGW 271721
TAFGDV
TAF
KGDV 271721Z 2718/2818 05013KT 5SM -SN SCT025 OVC035
     FM271900 05013KT 3SM -SN OVC007
     FM280000 04011KT P6SM BKN010
     FM280400 04007KT P6SM BKN015
     FM281400 09004KT P6SM BKN025
     FM281700 17007KT P6SM BKN015=

USA.gov is the U.S. government's official web portal to all federal, state and local government web resources and services.